sensor_id;sensor_type;location;lat;lon;timestamp;P1;durP1;ratioP1;P2;durP2;ratioP2
54883;SDS011;40776;52.880;6.016;2022-08-04T00:04:48;8.40;;;3.05;;
54883;SDS011;40776;52.880;6.016;2022-08-04T00:07:34;11.88;;;3.85;;
54883;SDS011;40776;52.880;6.016;2022-08-04T00:10:04;8.73;;;3.80;;
54883;SDS011;40776;52.880;6.016;2022-08-04T00:12:31;6.05;;;3.05;;
54883;SDS011;40776;52.880;6.016;2022-08-04T00:14:59;9.02;;;3.35;;
54883;SDS011;40776;52.880;6.016;2022-08-04T00:17:35;7.55;;;2.78;;
54883;SDS011;40776;52.880;6.016;2022-08-04T00:20:04;12.10;;;2.70;;
54883;SDS011;40776;52.880;6.016;2022-08-04T00:22:33;9.57;;;2.78;;
54883;SDS011;40776;52.880;6.016;2022-08-04T00:25:03;9.15;;;2.97;;
54883;SDS011;40776;52.880;6.016;2022-08-04T00:27:29;10.60;;;3.10;;
54883;SDS011;40776;52.880;6.016;2022-08-04T00:29:56;13.52;;;3.20;;
54883;SDS011;40776;52.880;6.016;2022-08-04T00:32:22;7.65;;;2.78;;
54883;SDS011;40776;52.880;6.016;2022-08-04T00:34:48;11.45;;;3.97;;
54883;SDS011;40776;52.880;6.016;2022-08-04T00:37:14;9.25;;;3.00;;
54883;SDS011;40776;52.880;6.016;2022-08-04T00:39:41;7.90;;;2.50;;
54883;SDS011;40776;52.880;6.016;2022-08-04T00:44:44;9.95;;;3.85;;
54883;SDS011;40776;52.880;6.016;2022-08-04T00:50:10;8.30;;;2.70;;
54883;SDS011;40776;52.880;6.016;2022-08-04T00:58:02;8.52;;;2.85;;
54883;SDS011;40776;52.880;6.016;2022-08-04T01:00:32;8.35;;;2.75;;
54883;SDS011;40776;52.880;6.016;2022-08-04T01:03:13;8.43;;;2.65;;
54883;SDS011;40776;52.880;6.016;2022-08-04T01:05:50;5.53;;;2.63;;
54883;SDS011;40776;52.880;6.016;2022-08-04T01:16:34;7.57;;;3.20;;
54883;SDS011;40776;52.880;6.016;2022-08-04T01:19:12;9.90;;;3.65;;
54883;SDS011;40776;52.880;6.016;2022-08-04T01:26:54;9.23;;;3.42;;
54883;SDS011;40776;52.880;6.016;2022-08-04T01:29:22;8.63;;;3.22;;
54883;SDS011;40776;52.880;6.016;2022-08-04T01:34:21;7.40;;;2.65;;
54883;SDS011;40776;52.880;6.016;2022-08-04T01:36:57;11.98;;;4.28;;
54883;SDS011;40776;52.880;6.016;2022-08-04T01:39:27;8.88;;;2.88;;
54883;SDS011;40776;52.880;6.016;2022-08-04T01:42:04;7.03;;;3.15;;
54883;SDS011;40776;52.880;6.016;2022-08-04T01:44:30;9.15;;;3.13;;
54883;SDS011;40776;52.880;6.016;2022-08-04T01:46:59;9.93;;;3.63;;
54883;SDS011;40776;52.880;6.016;2022-08-04T01:49:27;8.43;;;3.00;;
54883;SDS011;40776;52.880;6.016;2022-08-04T01:51:54;8.05;;;3.00;;
54883;SDS011;40776;52.880;6.016;2022-08-04T01:54:20;11.45;;;3.25;;
54883;SDS011;40776;52.880;6.016;2022-08-04T01:56:48;8.15;;;4.40;;
54883;SDS011;40776;52.880;6.016;2022-08-04T01:59:16;8.55;;;3.30;;
54883;SDS011;40776;52.880;6.016;2022-08-04T02:01:43;9.15;;;3.70;;
54883;SDS011;40776;52.880;6.016;2022-08-04T02:04:15;8.55;;;3.95;;
54883;SDS011;40776;52.880;6.016;2022-08-04T02:09:42;8.73;;;3.55;;
54883;SDS011;40776;52.880;6.016;2022-08-04T02:12:18;8.45;;;3.15;;
54883;SDS011;40776;52.880;6.016;2022-08-04T02:14:49;10.63;;;4.03;;
54883;SDS011;40776;52.880;6.016;2022-08-04T02:17:37;9.15;;;3.53;;
54883;SDS011;40776;52.880;6.016;2022-08-04T02:20:15;7.75;;;3.08;;
54883;SDS011;40776;52.880;6.016;2022-08-04T02:23:09;9.45;;;3.88;;
54883;SDS011;40776;52.880;6.016;2022-08-04T02:25:45;10.50;;;4.18;;
54883;SDS011;40776;52.880;6.016;2022-08-04T02:33:36;9.95;;;3.80;;
54883;SDS011;40776;52.880;6.016;2022-08-04T02:36:04;7.20;;;3.35;;
54883;SDS011;40776;52.880;6.016;2022-08-04T02:41:06;10.27;;;3.30;;
54883;SDS011;40776;52.880;6.016;2022-08-04T02:43:33;6.63;;;3.00;;
54883;SDS011;40776;52.880;6.016;2022-08-04T02:46:00;6.95;;;3.15;;
54883;SDS011;40776;52.880;6.016;2022-08-04T02:48:27;7.82;;;3.45;;
54883;SDS011;40776;52.880;6.016;2022-08-04T02:50:54;9.00;;;3.45;;
54883;SDS011;40776;52.880;6.016;2022-08-04T02:53:21;9.93;;;3.42;;
54883;SDS011;40776;52.880;6.016;2022-08-04T02:55:47;6.88;;;3.45;;
54883;SDS011;40776;52.880;6.016;2022-08-04T02:58:14;11.35;;;3.63;;
54883;SDS011;40776;52.880;6.016;2022-08-04T03:00:42;8.40;;;3.78;;
54883;SDS011;40776;52.880;6.016;2022-08-04T03:03:31;8.98;;;4.25;;
54883;SDS011;40776;52.880;6.016;2022-08-04T03:08:38;7.90;;;3.65;;
54883;SDS011;40776;52.880;6.016;2022-08-04T03:14:04;8.88;;;3.80;;
54883;SDS011;40776;52.880;6.016;2022-08-04T03:17:22;6.70;;;3.13;;
54883;SDS011;40776;52.880;6.016;2022-08-04T03:24:46;6.05;;;2.95;;
54883;SDS011;40776;52.880;6.016;2022-08-04T03:27:24;11.40;;;4.22;;
54883;SDS011;40776;52.880;6.016;2022-08-04T03:48:44;8.15;;;3.67;;
54883;SDS011;40776;52.880;6.016;2022-08-04T03:51:17;7.15;;;3.95;;
54883;SDS011;40776;52.880;6.016;2022-08-04T03:54:28;11.05;;;3.72;;
54883;SDS011;40776;52.880;6.016;2022-08-04T04:05:10;6.72;;;3.25;;
54883;SDS011;40776;52.880;6.016;2022-08-04T04:07:58;6.70;;;3.25;;
54883;SDS011;40776;52.880;6.016;2022-08-04T04:15:46;6.40;;;3.05;;
54883;SDS011;40776;52.880;6.016;2022-08-04T04:18:30;8.65;;;4.15;;
54883;SDS011;40776;52.880;6.016;2022-08-04T04:26:31;8.85;;;3.90;;
54883;SDS011;40776;52.880;6.016;2022-08-04T04:29:10;7.40;;;3.45;;
54883;SDS011;40776;52.880;6.016;2022-08-04T04:34:15;9.43;;;4.78;;
54883;SDS011;40776;52.880;6.016;2022-08-04T04:52:37;8.27;;;4.13;;
54883;SDS011;40776;52.880;6.016;2022-08-04T04:55:23;8.90;;;4.20;;
54883;SDS011;40776;52.880;6.016;2022-08-04T04:57:51;9.98;;;4.72;;
54883;SDS011;40776;52.880;6.016;2022-08-04T05:00:18;11.48;;;4.72;;
54883;SDS011;40776;52.880;6.016;2022-08-04T05:14:08;14.30;;;5.78;;
54883;SDS011;40776;52.880;6.016;2022-08-04T05:17:02;11.73;;;6.10;;
54883;SDS011;40776;52.880;6.016;2022-08-04T05:22:00;11.00;;;5.50;;
54883;SDS011;40776;52.880;6.016;2022-08-04T05:24:36;11.68;;;6.57;;
54883;SDS011;40776;52.880;6.016;2022-08-04T05:29:37;10.30;;;5.40;;
54883;SDS011;40776;52.880;6.016;2022-08-04T05:32:10;9.77;;;6.28;;
54883;SDS011;40776;52.880;6.016;2022-08-04T05:34:41;9.45;;;5.82;;
54883;SDS011;40776;52.880;6.016;2022-08-04T05:37:14;13.55;;;6.32;;
54883;SDS011;40776;52.880;6.016;2022-08-04T05:39:43;12.80;;;6.53;;
54883;SDS011;40776;52.880;6.016;2022-08-04T05:42:11;12.13;;;6.90;;
54883;SDS011;40776;52.880;6.016;2022-08-04T05:44:38;8.60;;;5.65;;
54883;SDS011;40776;52.880;6.016;2022-08-04T05:47:04;13.63;;;6.63;;
54883;SDS011;40776;52.880;6.016;2022-08-04T05:49:31;14.55;;;6.03;;
54883;SDS011;40776;52.880;6.016;2022-08-04T05:52:00;11.35;;;5.63;;
54883;SDS011;40776;52.880;6.016;2022-08-04T05:54:27;10.75;;;5.60;;
54883;SDS011;40776;52.880;6.016;2022-08-04T05:56:55;9.15;;;5.53;;
54883;SDS011;40776;52.880;6.016;2022-08-04T05:59:22;10.57;;;5.55;;
54883;SDS011;40776;52.880;6.016;2022-08-04T06:01:50;12.95;;;5.53;;
54883;SDS011;40776;52.880;6.016;2022-08-04T06:04:18;9.73;;;5.93;;
54883;SDS011;40776;52.880;6.016;2022-08-04T06:06:45;8.57;;;4.30;;
54883;SDS011;40776;52.880;6.016;2022-08-04T06:09:12;12.60;;;6.30;;
54883;SDS011;40776;52.880;6.016;2022-08-04T06:11:38;8.25;;;5.03;;
54883;SDS011;40776;52.880;6.016;2022-08-04T06:14:06;11.25;;;5.20;;
54883;SDS011;40776;52.880;6.016;2022-08-04T06:16:40;10.38;;;5.10;;
54883;SDS011;40776;52.880;6.016;2022-08-04T06:19:10;9.25;;;4.82;;
54883;SDS011;40776;52.880;6.016;2022-08-04T06:21:40;14.57;;;4.38;;
54883;SDS011;40776;52.880;6.016;2022-08-04T06:24:10;7.20;;;4.28;;
54883;SDS011;40776;52.880;6.016;2022-08-04T06:26:40;8.00;;;4.68;;
54883;SDS011;40776;52.880;6.016;2022-08-04T06:29:07;9.38;;;5.20;;
54883;SDS011;40776;52.880;6.016;2022-08-04T06:31:41;14.07;;;4.65;;
54883;SDS011;40776;52.880;6.016;2022-08-04T06:34:11;9.02;;;4.60;;
54883;SDS011;40776;52.880;6.016;2022-08-04T06:36:38;13.35;;;5.50;;
54883;SDS011;40776;52.880;6.016;2022-08-04T06:39:05;13.30;;;5.68;;
54883;SDS011;40776;52.880;6.016;2022-08-04T06:41:32;11.73;;;4.93;;
54883;SDS011;40776;52.880;6.016;2022-08-04T06:43:59;14.55;;;4.97;;
54883;SDS011;40776;52.880;6.016;2022-08-04T06:46:27;11.95;;;5.47;;
54883;SDS011;40776;52.880;6.016;2022-08-04T06:48:54;17.40;;;6.28;;
54883;SDS011;40776;52.880;6.016;2022-08-04T06:51:20;12.05;;;6.07;;
54883;SDS011;40776;52.880;6.016;2022-08-04T06:53:47;12.90;;;5.97;;
54883;SDS011;40776;52.880;6.016;2022-08-04T06:56:16;14.80;;;5.07;;
54883;SDS011;40776;52.880;6.016;2022-08-04T06:58:44;7.47;;;4.32;;
54883;SDS011;40776;52.880;6.016;2022-08-04T07:01:14;11.35;;;5.35;;
54883;SDS011;40776;52.880;6.016;2022-08-04T07:03:42;10.48;;;5.85;;
54883;SDS011;40776;52.880;6.016;2022-08-04T07:06:08;12.43;;;4.90;;
54883;SDS011;40776;52.880;6.016;2022-08-04T07:08:34;8.25;;;5.45;;
54883;SDS011;40776;52.880;6.016;2022-08-04T07:11:00;8.77;;;4.47;;
54883;SDS011;40776;52.880;6.016;2022-08-04T07:13:27;10.82;;;4.75;;
54883;SDS011;40776;52.880;6.016;2022-08-04T07:15:55;15.63;;;4.90;;
54883;SDS011;40776;52.880;6.016;2022-08-04T07:18:22;7.38;;;4.82;;
54883;SDS011;40776;52.880;6.016;2022-08-04T07:20:48;10.18;;;4.45;;
54883;SDS011;40776;52.880;6.016;2022-08-04T07:23:14;12.75;;;5.22;;
54883;SDS011;40776;52.880;6.016;2022-08-04T07:25:42;10.10;;;4.20;;
54883;SDS011;40776;52.880;6.016;2022-08-04T07:28:14;10.15;;;3.60;;
54883;SDS011;40776;52.880;6.016;2022-08-04T07:30:40;10.75;;;3.90;;
54883;SDS011;40776;52.880;6.016;2022-08-04T07:33:08;8.88;;;3.88;;
54883;SDS011;40776;52.880;6.016;2022-08-04T07:35:35;11.10;;;4.90;;
54883;SDS011;40776;52.880;6.016;2022-08-04T07:38:02;13.65;;;4.72;;
54883;SDS011;40776;52.880;6.016;2022-08-04T07:40:28;7.45;;;3.85;;
54883;SDS011;40776;52.880;6.016;2022-08-04T07:42:54;10.43;;;3.92;;
54883;SDS011;40776;52.880;6.016;2022-08-04T07:45:21;11.68;;;5.75;;
54883;SDS011;40776;52.880;6.016;2022-08-04T07:47:48;10.70;;;4.70;;
54883;SDS011;40776;52.880;6.016;2022-08-04T07:50:14;6.10;;;4.25;;
54883;SDS011;40776;52.880;6.016;2022-08-04T07:52:40;9.45;;;4.47;;
54883;SDS011;40776;52.880;6.016;2022-08-04T07:55:06;11.88;;;3.88;;
54883;SDS011;40776;52.880;6.016;2022-08-04T07:57:32;10.25;;;4.03;;
54883;SDS011;40776;52.880;6.016;2022-08-04T07:59:58;8.48;;;4.32;;
54883;SDS011;40776;52.880;6.016;2022-08-04T08:02:24;13.02;;;4.10;;
54883;SDS011;40776;52.880;6.016;2022-08-04T08:04:50;11.10;;;4.50;;
54883;SDS011;40776;52.880;6.016;2022-08-04T08:07:18;7.07;;;4.00;;
54883;SDS011;40776;52.880;6.016;2022-08-04T08:09:44;12.35;;;3.97;;
54883;SDS011;40776;52.880;6.016;2022-08-04T08:12:10;8.80;;;4.18;;
54883;SDS011;40776;52.880;6.016;2022-08-04T08:14:36;7.53;;;4.68;;
54883;SDS011;40776;52.880;6.016;2022-08-04T08:17:02;9.45;;;4.15;;
54883;SDS011;40776;52.880;6.016;2022-08-04T08:19:31;13.50;;;4.10;;
54883;SDS011;40776;52.880;6.016;2022-08-04T08:22:01;8.38;;;4.07;;
54883;SDS011;40776;52.880;6.016;2022-08-04T08:24:28;7.15;;;3.28;;
54883;SDS011;40776;52.880;6.016;2022-08-04T08:26:55;8.07;;;4.30;;
54883;SDS011;40776;52.880;6.016;2022-08-04T08:29:22;10.38;;;3.72;;
54883;SDS011;40776;52.880;6.016;2022-08-04T08:31:49;12.15;;;4.20;;
54883;SDS011;40776;52.880;6.016;2022-08-04T08:34:15;9.10;;;3.53;;
54883;SDS011;40776;52.880;6.016;2022-08-04T08:36:45;8.05;;;3.55;;
54883;SDS011;40776;52.880;6.016;2022-08-04T08:58:34;7.10;;;2.72;;
54883;SDS011;40776;52.880;6.016;2022-08-04T09:04:05;7.70;;;2.55;;
54883;SDS011;40776;52.880;6.016;2022-08-04T09:10:02;7.25;;;2.75;;
54883;SDS011;40776;52.880;6.016;2022-08-04T09:12:55;6.53;;;2.30;;
54883;SDS011;40776;52.880;6.016;2022-08-04T09:15:35;8.60;;;2.58;;
54883;SDS011;40776;52.880;6.016;2022-08-04T09:18:26;11.75;;;3.42;;
54883;SDS011;40776;52.880;6.016;2022-08-04T09:20:59;9.77;;;3.17;;
54883;SDS011;40776;52.880;6.016;2022-08-04T09:26:41;6.20;;;3.08;;
54883;SDS011;40776;52.880;6.016;2022-08-04T09:32:11;7.60;;;2.78;;
54883;SDS011;40776;52.880;6.016;2022-08-04T09:39:41;8.43;;;2.40;;
54883;SDS011;40776;52.880;6.016;2022-08-04T09:47:57;5.32;;;2.03;;
54883;SDS011;40776;52.880;6.016;2022-08-04T09:50:39;9.10;;;2.77;;
54883;SDS011;40776;52.880;6.016;2022-08-04T09:58:17;4.47;;;2.17;;
54883;SDS011;40776;52.880;6.016;2022-08-04T10:01:00;6.97;;;1.83;;
54883;SDS011;40776;52.880;6.016;2022-08-04T10:03:29;6.13;;;1.50;;
54883;SDS011;40776;52.880;6.016;2022-08-04T10:06:02;3.75;;;1.35;;
54883;SDS011;40776;52.880;6.016;2022-08-04T10:08:41;6.72;;;1.52;;
54883;SDS011;40776;52.880;6.016;2022-08-04T10:16:52;3.45;;;1.10;;
54883;SDS011;40776;52.880;6.016;2022-08-04T10:19:26;3.60;;;1.25;;
54883;SDS011;40776;52.880;6.016;2022-08-04T10:24:38;3.17;;;1.00;;
54883;SDS011;40776;52.880;6.016;2022-08-04T10:27:15;2.97;;;1.23;;
54883;SDS011;40776;52.880;6.016;2022-08-04T10:30:07;5.20;;;1.10;;
54883;SDS011;40776;52.880;6.016;2022-08-04T10:35:16;1.93;;;1.00;;
54883;SDS011;40776;52.880;6.016;2022-08-04T10:43:18;6.95;;;1.33;;
54883;SDS011;40776;52.880;6.016;2022-08-04T10:46:12;4.63;;;1.10;;
54883;SDS011;40776;52.880;6.016;2022-08-04T10:48:50;2.95;;;1.10;;
54883;SDS011;40776;52.880;6.016;2022-08-04T10:54:06;2.38;;;1.15;;
54883;SDS011;40776;52.880;6.016;2022-08-04T10:57:10;2.55;;;1.05;;
54883;SDS011;40776;52.880;6.016;2022-08-04T11:00:00;4.72;;;1.10;;
54883;SDS011;40776;52.880;6.016;2022-08-04T11:05:17;1.90;;;1.13;;
54883;SDS011;40776;52.880;6.016;2022-08-04T11:07:51;2.95;;;1.20;;
54883;SDS011;40776;52.880;6.016;2022-08-04T11:10:21;2.47;;;1.08;;
54883;SDS011;40776;52.880;6.016;2022-08-04T11:12:51;3.75;;;1.35;;
54883;SDS011;40776;52.880;6.016;2022-08-04T11:15:22;3.58;;;1.15;;
54883;SDS011;40776;52.880;6.016;2022-08-04T11:17:58;4.78;;;0.95;;
54883;SDS011;40776;52.880;6.016;2022-08-04T11:20:37;4.45;;;1.00;;
54883;SDS011;40776;52.880;6.016;2022-08-04T11:23:32;2.65;;;0.85;;
54883;SDS011;40776;52.880;6.016;2022-08-04T11:26:08;2.95;;;1.13;;
54883;SDS011;40776;52.880;6.016;2022-08-04T11:31:25;5.03;;;1.20;;
54883;SDS011;40776;52.880;6.016;2022-08-04T11:33:57;3.95;;;1.20;;
54883;SDS011;40776;52.880;6.016;2022-08-04T11:36:48;3.58;;;1.20;;
54883;SDS011;40776;52.880;6.016;2022-08-04T11:39:26;3.38;;;0.88;;
54883;SDS011;40776;52.880;6.016;2022-08-04T11:42:29;3.45;;;1.00;;
54883;SDS011;40776;52.880;6.016;2022-08-04T11:45:07;3.80;;;0.82;;
54883;SDS011;40776;52.880;6.016;2022-08-04T11:47:45;2.58;;;1.10;;
54883;SDS011;40776;52.880;6.016;2022-08-04T11:50:20;2.65;;;0.90;;
54883;SDS011;40776;52.880;6.016;2022-08-04T11:53:06;3.80;;;1.08;;
54883;SDS011;40776;52.880;6.016;2022-08-04T11:55:41;2.65;;;1.13;;
54883;SDS011;40776;52.880;6.016;2022-08-04T11:58:08;5.78;;;1.00;;
54883;SDS011;40776;52.880;6.016;2022-08-04T12:00:34;4.90;;;1.10;;
54883;SDS011;40776;52.880;6.016;2022-08-04T12:03:17;2.85;;;1.08;;
54883;SDS011;40776;52.880;6.016;2022-08-04T12:17:59;2.95;;;1.10;;
54883;SDS011;40776;52.880;6.016;2022-08-04T12:20:46;6.03;;;1.13;;
54883;SDS011;40776;52.880;6.016;2022-08-04T12:23:16;3.80;;;1.33;;
54883;SDS011;40776;52.880;6.016;2022-08-04T12:25:45;3.30;;;1.08;;
54883;SDS011;40776;52.880;6.016;2022-08-04T12:31:01;3.80;;;1.25;;
54883;SDS011;40776;52.880;6.016;2022-08-04T12:39:27;6.10;;;1.42;;
54883;SDS011;40776;52.880;6.016;2022-08-04T12:42:00;4.20;;;1.40;;
54883;SDS011;40776;52.880;6.016;2022-08-04T12:44:34;5.28;;;1.60;;
54883;SDS011;40776;52.880;6.016;2022-08-04T12:47:03;4.15;;;1.20;;
54883;SDS011;40776;52.880;6.016;2022-08-04T12:49:31;3.35;;;1.27;;
54883;SDS011;40776;52.880;6.016;2022-08-04T12:52:04;4.97;;;1.25;;
54883;SDS011;40776;52.880;6.016;2022-08-04T12:54:31;4.28;;;1.30;;
54883;SDS011;40776;52.880;6.016;2022-08-04T12:57:00;3.28;;;1.00;;
54883;SDS011;40776;52.880;6.016;2022-08-04T12:59:27;5.60;;;1.83;;
54883;SDS011;40776;52.880;6.016;2022-08-04T13:01:53;3.60;;;1.20;;
54883;SDS011;40776;52.880;6.016;2022-08-04T13:04:22;4.60;;;1.40;;
54883;SDS011;40776;52.880;6.016;2022-08-04T13:07:12;2.13;;;1.00;;
54883;SDS011;40776;52.880;6.016;2022-08-04T13:09:42;2.67;;;0.95;;
54883;SDS011;40776;52.880;6.016;2022-08-04T13:12:13;3.55;;;1.00;;
54883;SDS011;40776;52.880;6.016;2022-08-04T13:14:40;1.90;;;0.70;;
54883;SDS011;40776;52.880;6.016;2022-08-04T13:17:10;2.38;;;1.05;;
54883;SDS011;40776;52.880;6.016;2022-08-04T13:19:36;3.13;;;0.82;;
54883;SDS011;40776;52.880;6.016;2022-08-04T13:22:03;3.03;;;0.80;;
54883;SDS011;40776;52.880;6.016;2022-08-04T13:24:30;3.25;;;1.00;;
54883;SDS011;40776;52.880;6.016;2022-08-04T13:27:02;2.92;;;0.77;;
54883;SDS011;40776;52.880;6.016;2022-08-04T13:29:44;3.63;;;1.02;;
54883;SDS011;40776;52.880;6.016;2022-08-04T13:32:16;3.95;;;1.00;;
54883;SDS011;40776;52.880;6.016;2022-08-04T13:34:44;3.60;;;0.90;;
54883;SDS011;40776;52.880;6.016;2022-08-04T13:37:12;2.97;;;0.93;;
54883;SDS011;40776;52.880;6.016;2022-08-04T13:39:43;3.85;;;1.20;;
54883;SDS011;40776;52.880;6.016;2022-08-04T13:42:11;5.10;;;1.08;;
54883;SDS011;40776;52.880;6.016;2022-08-04T13:44:38;5.28;;;1.27;;
54883;SDS011;40776;52.880;6.016;2022-08-04T13:47:19;6.40;;;1.20;;
54883;SDS011;40776;52.880;6.016;2022-08-04T13:52:40;2.17;;;0.90;;
54883;SDS011;40776;52.880;6.016;2022-08-04T13:55:06;6.60;;;1.63;;
54883;SDS011;40776;52.880;6.016;2022-08-04T13:57:42;4.93;;;1.05;;
54883;SDS011;40776;52.880;6.016;2022-08-04T14:00:09;3.63;;;1.20;;
54883;SDS011;40776;52.880;6.016;2022-08-04T14:02:43;4.85;;;1.00;;
54883;SDS011;40776;52.880;6.016;2022-08-04T14:05:29;2.45;;;1.20;;
54883;SDS011;40776;52.880;6.016;2022-08-04T14:08:14;3.65;;;1.33;;
54883;SDS011;40776;52.880;6.016;2022-08-04T14:10:56;4.03;;;1.33;;
54883;SDS011;40776;52.880;6.016;2022-08-04T14:13:29;2.67;;;1.20;;
54883;SDS011;40776;52.880;6.016;2022-08-04T14:15:57;3.80;;;1.30;;
54883;SDS011;40776;52.880;6.016;2022-08-04T14:18:27;2.30;;;1.20;;
54883;SDS011;40776;52.880;6.016;2022-08-04T14:21:00;3.05;;;1.10;;
54883;SDS011;40776;52.880;6.016;2022-08-04T14:23:52;2.83;;;0.90;;
54883;SDS011;40776;52.880;6.016;2022-08-04T14:26:21;4.95;;;1.00;;
54883;SDS011;40776;52.880;6.016;2022-08-04T14:28:49;2.13;;;0.90;;
54883;SDS011;40776;52.880;6.016;2022-08-04T14:31:19;3.90;;;1.27;;
54883;SDS011;40776;52.880;6.016;2022-08-04T14:33:47;4.18;;;1.45;;
54883;SDS011;40776;52.880;6.016;2022-08-04T14:36:15;2.10;;;0.90;;
54883;SDS011;40776;52.880;6.016;2022-08-04T14:38:51;6.43;;;1.13;;
54883;SDS011;40776;52.880;6.016;2022-08-04T14:41:25;4.13;;;0.88;;
54883;SDS011;40776;52.880;6.016;2022-08-04T14:43:57;4.10;;;1.50;;
54883;SDS011;40776;52.880;6.016;2022-08-04T14:46:25;4.05;;;1.25;;
54883;SDS011;40776;52.880;6.016;2022-08-04T14:49:24;4.95;;;1.00;;
54883;SDS011;40776;52.880;6.016;2022-08-04T14:51:44;6.00;;;1.40;;
54883;SDS011;40776;52.880;6.016;2022-08-04T14:54:24;5.75;;;1.15;;
54883;SDS011;40776;52.880;6.016;2022-08-04T14:56:55;3.28;;;1.05;;
54883;SDS011;40776;52.880;6.016;2022-08-04T14:59:24;2.90;;;1.20;;
54883;SDS011;40776;52.880;6.016;2022-08-04T15:01:51;6.00;;;1.10;;
54883;SDS011;40776;52.880;6.016;2022-08-04T15:04:18;5.05;;;1.50;;
54883;SDS011;40776;52.880;6.016;2022-08-04T15:06:49;3.90;;;1.60;;
54883;SDS011;40776;52.880;6.016;2022-08-04T15:09:15;7.18;;;1.60;;
54883;SDS011;40776;52.880;6.016;2022-08-04T15:11:41;3.20;;;1.10;;
54883;SDS011;40776;52.880;6.016;2022-08-04T15:14:08;6.25;;;1.35;;
54883;SDS011;40776;52.880;6.016;2022-08-04T15:16:33;5.05;;;1.60;;
54883;SDS011;40776;52.880;6.016;2022-08-04T15:18:59;7.15;;;1.65;;
54883;SDS011;40776;52.880;6.016;2022-08-04T15:21:26;5.03;;;1.55;;
54883;SDS011;40776;52.880;6.016;2022-08-04T15:23:53;3.80;;;1.33;;
54883;SDS011;40776;52.880;6.016;2022-08-04T15:26:22;5.40;;;1.27;;
54883;SDS011;40776;52.880;6.016;2022-08-04T15:28:53;4.00;;;1.35;;
54883;SDS011;40776;52.880;6.016;2022-08-04T15:31:22;6.40;;;1.30;;
54883;SDS011;40776;52.880;6.016;2022-08-04T15:33:49;3.88;;;1.10;;
54883;SDS011;40776;52.880;6.016;2022-08-04T15:36:20;4.00;;;1.25;;
54883;SDS011;40776;52.880;6.016;2022-08-04T15:38:58;3.22;;;1.20;;
54883;SDS011;40776;52.880;6.016;2022-08-04T15:41:42;6.18;;;1.80;;
54883;SDS011;40776;52.880;6.016;2022-08-04T15:47:17;4.73;;;1.40;;
54883;SDS011;40776;52.880;6.016;2022-08-04T15:49:43;4.68;;;1.42;;
54883;SDS011;40776;52.880;6.016;2022-08-04T15:52:10;7.47;;;1.73;;
54883;SDS011;40776;52.880;6.016;2022-08-04T15:54:40;4.63;;;1.70;;
54883;SDS011;40776;52.880;6.016;2022-08-04T15:57:07;5.20;;;1.60;;
54883;SDS011;40776;52.880;6.016;2022-08-04T16:07:53;5.28;;;1.35;;
54883;SDS011;40776;52.880;6.016;2022-08-04T16:12:58;3.80;;;1.38;;
54883;SDS011;40776;52.880;6.016;2022-08-04T16:15:47;3.97;;;1.13;;
54883;SDS011;40776;52.880;6.016;2022-08-04T16:20:55;5.35;;;1.40;;
54883;SDS011;40776;52.880;6.016;2022-08-04T16:34:34;3.47;;;1.42;;
54883;SDS011;40776;52.880;6.016;2022-08-04T16:37:14;4.13;;;1.10;;
54883;SDS011;40776;52.880;6.016;2022-08-04T16:39:42;3.05;;;1.10;;
54883;SDS011;40776;52.880;6.016;2022-08-04T16:45:14;3.22;;;1.40;;
54883;SDS011;40776;52.880;6.016;2022-08-04T16:50:17;3.35;;;1.42;;
54883;SDS011;40776;52.880;6.016;2022-08-04T16:52:45;3.30;;;1.10;;
54883;SDS011;40776;52.880;6.016;2022-08-04T16:55:18;2.83;;;1.30;;
54883;SDS011;40776;52.880;6.016;2022-08-04T16:57:55;6.97;;;1.80;;
54883;SDS011;40776;52.880;6.016;2022-08-04T17:02:55;4.97;;;1.10;;
54883;SDS011;40776;52.880;6.016;2022-08-04T17:05:22;4.57;;;1.73;;
54883;SDS011;40776;52.880;6.016;2022-08-04T17:07:50;3.53;;;1.20;;
54883;SDS011;40776;52.880;6.016;2022-08-04T17:12:58;4.63;;;1.30;;
54883;SDS011;40776;52.880;6.016;2022-08-04T17:15:24;4.32;;;1.40;;
54883;SDS011;40776;52.880;6.016;2022-08-04T17:17:50;4.53;;;1.10;;
54883;SDS011;40776;52.880;6.016;2022-08-04T17:20:17;4.75;;;1.35;;
54883;SDS011;40776;52.880;6.016;2022-08-04T17:22:50;5.85;;;1.23;;
54883;SDS011;40776;52.880;6.016;2022-08-04T17:25:18;2.88;;;1.25;;
54883;SDS011;40776;52.880;6.016;2022-08-04T17:27:49;3.67;;;1.58;;
54883;SDS011;40776;52.880;6.016;2022-08-04T17:30:26;4.43;;;1.30;;
54883;SDS011;40776;52.880;6.016;2022-08-04T17:32:52;5.35;;;1.48;;
54883;SDS011;40776;52.880;6.016;2022-08-04T17:35:17;4.43;;;1.20;;
54883;SDS011;40776;52.880;6.016;2022-08-04T17:37:43;4.47;;;1.25;;
54883;SDS011;40776;52.880;6.016;2022-08-04T17:40:12;5.07;;;1.35;;
54883;SDS011;40776;52.880;6.016;2022-08-04T17:42:39;3.70;;;1.33;;
54883;SDS011;40776;52.880;6.016;2022-08-04T17:45:06;3.83;;;1.48;;
54883;SDS011;40776;52.880;6.016;2022-08-04T17:47:35;4.65;;;1.20;;
54883;SDS011;40776;52.880;6.016;2022-08-04T17:50:29;3.97;;;1.00;;
54883;SDS011;40776;52.880;6.016;2022-08-04T17:55:35;3.55;;;1.13;;
54883;SDS011;40776;52.880;6.016;2022-08-04T17:58:18;5.88;;;1.42;;
54883;SDS011;40776;52.880;6.016;2022-08-04T18:00:45;5.60;;;1.60;;
54883;SDS011;40776;52.880;6.016;2022-08-04T18:03:23;4.78;;;1.35;;
54883;SDS011;40776;52.880;6.016;2022-08-04T18:05:52;7.63;;;1.27;;
54883;SDS011;40776;52.880;6.016;2022-08-04T18:08:24;2.47;;;1.20;;
54883;SDS011;40776;52.880;6.016;2022-08-04T18:10:51;2.53;;;1.02;;
54883;SDS011;40776;52.880;6.016;2022-08-04T18:13:18;4.10;;;1.45;;
54883;SDS011;40776;52.880;6.016;2022-08-04T18:15:44;2.47;;;1.10;;
54883;SDS011;40776;52.880;6.016;2022-08-04T18:18:14;4.25;;;1.10;;
54883;SDS011;40776;52.880;6.016;2022-08-04T18:20:41;2.40;;;1.20;;
54883;SDS011;40776;52.880;6.016;2022-08-04T18:23:10;3.88;;;1.45;;
54883;SDS011;40776;52.880;6.016;2022-08-04T18:25:37;2.22;;;1.27;;
54883;SDS011;40776;52.880;6.016;2022-08-04T18:28:03;3.97;;;1.48;;
54883;SDS011;40776;52.880;6.016;2022-08-04T18:30:32;4.38;;;1.50;;
54883;SDS011;40776;52.880;6.016;2022-08-04T18:32:58;4.68;;;1.75;;
54883;SDS011;40776;52.880;6.016;2022-08-04T18:35:24;3.88;;;1.45;;
54883;SDS011;40776;52.880;6.016;2022-08-04T18:37:51;4.82;;;1.55;;
54883;SDS011;40776;52.880;6.016;2022-08-04T18:40:17;3.08;;;1.30;;
54883;SDS011;40776;52.880;6.016;2022-08-04T18:42:43;6.00;;;1.50;;
54883;SDS011;40776;52.880;6.016;2022-08-04T18:45:09;2.97;;;1.33;;
54883;SDS011;40776;52.880;6.016;2022-08-04T18:47:37;6.25;;;1.48;;
54883;SDS011;40776;52.880;6.016;2022-08-04T18:50:03;6.78;;;1.73;;
54883;SDS011;40776;52.880;6.016;2022-08-04T18:52:29;6.43;;;1.90;;
54883;SDS011;40776;52.880;6.016;2022-08-04T18:54:55;4.65;;;1.70;;
54883;SDS011;40776;52.880;6.016;2022-08-04T18:57:24;3.03;;;1.23;;
54883;SDS011;40776;52.880;6.016;2022-08-04T18:59:52;4.25;;;1.55;;
54883;SDS011;40776;52.880;6.016;2022-08-04T19:02:20;5.45;;;1.48;;
54883;SDS011;40776;52.880;6.016;2022-08-04T19:04:46;5.07;;;1.33;;
54883;SDS011;40776;52.880;6.016;2022-08-04T19:07:13;4.35;;;1.70;;
54883;SDS011;40776;52.880;6.016;2022-08-04T19:09:43;4.90;;;1.52;;
54883;SDS011;40776;52.880;6.016;2022-08-04T19:12:09;7.55;;;1.70;;
54883;SDS011;40776;52.880;6.016;2022-08-04T19:14:35;5.97;;;1.70;;
54883;SDS011;40776;52.880;6.016;2022-08-04T19:17:01;7.97;;;1.75;;
54883;SDS011;40776;52.880;6.016;2022-08-04T19:19:27;7.75;;;1.98;;
54883;SDS011;40776;52.880;6.016;2022-08-04T19:21:53;5.65;;;1.80;;
54883;SDS011;40776;52.880;6.016;2022-08-04T19:24:21;3.80;;;1.70;;
54883;SDS011;40776;52.880;6.016;2022-08-04T19:26:47;5.25;;;2.28;;
54883;SDS011;40776;52.880;6.016;2022-08-04T19:29:13;3.47;;;1.40;;
54883;SDS011;40776;52.880;6.016;2022-08-04T19:31:39;4.72;;;1.70;;